sensor_id;sensor_type;location;lat;lon;timestamp;P1;durP1;ratioP1;P2;durP2;ratioP2
28509;SDS011;15723;55.684;37.928;2023-04-03T00:01:40;16.50;;;11.35;;
28509;SDS011;15723;55.684;37.928;2023-04-03T00:04:06;22.92;;;11.68;;
28509;SDS011;15723;55.684;37.928;2023-04-03T00:06:33;20.55;;;11.35;;
28509;SDS011;15723;55.684;37.928;2023-04-03T00:09:00;20.50;;;11.60;;
28509;SDS011;15723;55.684;37.928;2023-04-03T00:11:26;21.48;;;12.15;;
28509;SDS011;15723;55.684;37.928;2023-04-03T00:13:52;20.98;;;11.88;;
28509;SDS011;15723;55.684;37.928;2023-04-03T00:16:18;22.13;;;11.50;;
28509;SDS011;15723;55.684;37.928;2023-04-03T00:18:45;16.88;;;11.90;;
28509;SDS011;15723;55.684;37.928;2023-04-03T00:21:12;16.10;;;11.77;;
28509;SDS011;15723;55.684;37.928;2023-04-03T00:23:39;18.92;;;11.93;;
28509;SDS011;15723;55.684;37.928;2023-04-03T00:26:05;19.52;;;12.30;;
28509;SDS011;15723;55.684;37.928;2023-04-03T00:28:32;19.35;;;12.45;;
28509;SDS011;15723;55.684;37.928;2023-04-03T00:30:58;20.42;;;12.07;;
28509;SDS011;15723;55.684;37.928;2023-04-03T00:33:24;20.02;;;12.25;;
28509;SDS011;15723;55.684;37.928;2023-04-03T00:35:50;18.65;;;12.07;;
28509;SDS011;15723;55.684;37.928;2023-04-03T00:38:17;21.98;;;12.43;;
28509;SDS011;15723;55.684;37.928;2023-04-03T00:40:45;19.58;;;12.80;;
28509;SDS011;15723;55.684;37.928;2023-04-03T00:43:17;20.02;;;13.23;;
28509;SDS011;15723;55.684;37.928;2023-04-03T00:45:54;22.98;;;12.48;;
28509;SDS011;15723;55.684;37.928;2023-04-03T00:48:36;22.55;;;13.15;;
28509;SDS011;15723;55.684;37.928;2023-04-03T00:51:08;20.08;;;12.48;;
28509;SDS011;15723;55.684;37.928;2023-04-03T00:53:40;21.17;;;13.70;;
28509;SDS011;15723;55.684;37.928;2023-04-03T00:58:40;21.48;;;12.98;;
28509;SDS011;15723;55.684;37.928;2023-04-03T01:01:16;25.27;;;13.27;;
28509;SDS011;15723;55.684;37.928;2023-04-03T01:03:46;22.52;;;14.55;;
28509;SDS011;15723;55.684;37.928;2023-04-03T01:06:14;22.45;;;13.68;;
28509;SDS011;15723;55.684;37.928;2023-04-03T01:08:45;24.92;;;13.57;;
28509;SDS011;15723;55.684;37.928;2023-04-03T01:11:15;20.52;;;13.98;;
28509;SDS011;15723;55.684;37.928;2023-04-03T01:13:42;29.38;;;15.05;;
28509;SDS011;15723;55.684;37.928;2023-04-03T01:16:08;22.42;;;14.00;;
28509;SDS011;15723;55.684;37.928;2023-04-03T01:18:36;23.48;;;13.25;;
28509;SDS011;15723;55.684;37.928;2023-04-03T01:21:28;20.58;;;13.50;;
28509;SDS011;15723;55.684;37.928;2023-04-03T01:24:20;25.10;;;13.85;;
28509;SDS011;15723;55.684;37.928;2023-04-03T01:26:56;23.08;;;13.27;;
28509;SDS011;15723;55.684;37.928;2023-04-03T01:29:23;23.83;;;14.45;;
28509;SDS011;15723;55.684;37.928;2023-04-03T01:31:53;30.67;;;15.32;;
28509;SDS011;15723;55.684;37.928;2023-04-03T01:34:22;22.38;;;14.10;;
28509;SDS011;15723;55.684;37.928;2023-04-03T01:36:50;24.23;;;14.65;;
28509;SDS011;15723;55.684;37.928;2023-04-03T01:39:16;25.33;;;15.25;;
28509;SDS011;15723;55.684;37.928;2023-04-03T01:41:43;28.42;;;16.05;;
28509;SDS011;15723;55.684;37.928;2023-04-03T01:44:16;22.38;;;15.15;;
28509;SDS011;15723;55.684;37.928;2023-04-03T01:46:42;26.30;;;16.42;;
28509;SDS011;15723;55.684;37.928;2023-04-03T01:49:08;29.40;;;15.10;;
28509;SDS011;15723;55.684;37.928;2023-04-03T01:51:35;24.33;;;14.77;;
28509;SDS011;15723;55.684;37.928;2023-04-03T01:54:01;22.45;;;15.35;;
28509;SDS011;15723;55.684;37.928;2023-04-03T01:56:28;25.67;;;16.08;;
28509;SDS011;15723;55.684;37.928;2023-04-03T01:58:55;25.60;;;16.38;;
28509;SDS011;15723;55.684;37.928;2023-04-03T02:01:21;26.25;;;15.73;;
28509;SDS011;15723;55.684;37.928;2023-04-03T02:03:49;27.52;;;16.73;;
28509;SDS011;15723;55.684;37.928;2023-04-03T02:06:15;29.40;;;15.93;;
28509;SDS011;15723;55.684;37.928;2023-04-03T02:08:41;25.58;;;14.85;;
28509;SDS011;15723;55.684;37.928;2023-04-03T02:11:07;24.05;;;15.38;;
28509;SDS011;15723;55.684;37.928;2023-04-03T02:13:34;23.13;;;14.80;;
28509;SDS011;15723;55.684;37.928;2023-04-03T02:16:05;24.67;;;14.95;;
28509;SDS011;15723;55.684;37.928;2023-04-03T02:18:33;25.42;;;15.07;;
28509;SDS011;15723;55.684;37.928;2023-04-03T02:20:59;26.20;;;15.27;;
28509;SDS011;15723;55.684;37.928;2023-04-03T02:23:26;22.83;;;15.25;;
28509;SDS011;15723;55.684;37.928;2023-04-03T02:25:52;27.80;;;15.98;;
28509;SDS011;15723;55.684;37.928;2023-04-03T02:28:18;31.75;;;15.80;;
28509;SDS011;15723;55.684;37.928;2023-04-03T02:30:44;25.63;;;15.50;;
28509;SDS011;15723;55.684;37.928;2023-04-03T02:33:10;24.13;;;15.45;;
28509;SDS011;15723;55.684;37.928;2023-04-03T02:35:38;24.52;;;14.95;;
28509;SDS011;15723;55.684;37.928;2023-04-03T02:38:04;22.40;;;15.50;;
28509;SDS011;15723;55.684;37.928;2023-04-03T02:40:33;30.92;;;16.40;;
28509;SDS011;15723;55.684;37.928;2023-04-03T02:42:59;28.60;;;16.58;;
28509;SDS011;15723;55.684;37.928;2023-04-03T02:45:25;27.58;;;16.85;;
28509;SDS011;15723;55.684;37.928;2023-04-03T02:47:52;29.58;;;17.70;;
28509;SDS011;15723;55.684;37.928;2023-04-03T02:50:18;38.78;;;17.23;;
28509;SDS011;15723;55.684;37.928;2023-04-03T02:52:44;26.25;;;16.98;;
28509;SDS011;15723;55.684;37.928;2023-04-03T02:55:13;28.00;;;16.23;;
28509;SDS011;15723;55.684;37.928;2023-04-03T02:57:41;24.27;;;16.27;;
28509;SDS011;15723;55.684;37.928;2023-04-03T03:00:07;27.15;;;17.75;;
28509;SDS011;15723;55.684;37.928;2023-04-03T03:02:35;27.38;;;16.27;;
28509;SDS011;15723;55.684;37.928;2023-04-03T03:05:01;28.77;;;17.77;;
28509;SDS011;15723;55.684;37.928;2023-04-03T03:07:29;33.35;;;17.83;;
28509;SDS011;15723;55.684;37.928;2023-04-03T03:09:55;27.10;;;16.75;;
28509;SDS011;15723;55.684;37.928;2023-04-03T03:12:21;32.35;;;17.58;;
28509;SDS011;15723;55.684;37.928;2023-04-03T03:14:49;30.15;;;17.48;;
28509;SDS011;15723;55.684;37.928;2023-04-03T03:17:16;27.60;;;16.50;;
28509;SDS011;15723;55.684;37.928;2023-04-03T03:19:43;29.05;;;16.85;;
28509;SDS011;15723;55.684;37.928;2023-04-03T03:22:11;32.50;;;18.13;;
28509;SDS011;15723;55.684;37.928;2023-04-03T03:24:37;30.20;;;17.55;;
28509;SDS011;15723;55.684;37.928;2023-04-03T03:27:03;34.63;;;18.38;;
28509;SDS011;15723;55.684;37.928;2023-04-03T03:29:29;29.25;;;18.00;;
28509;SDS011;15723;55.684;37.928;2023-04-03T03:31:56;36.85;;;20.48;;
28509;SDS011;15723;55.684;37.928;2023-04-03T03:34:22;59.28;;;27.65;;
28509;SDS011;15723;55.684;37.928;2023-04-03T03:36:48;81.57;;;34.13;;
28509;SDS011;15723;55.684;37.928;2023-04-03T03:39:15;82.72;;;35.55;;
28509;SDS011;15723;55.684;37.928;2023-04-03T03:41:41;75.03;;;34.33;;
28509;SDS011;15723;55.684;37.928;2023-04-03T03:44:07;64.07;;;28.67;;
28509;SDS011;15723;55.684;37.928;2023-04-03T03:46:34;57.10;;;28.55;;
28509;SDS011;15723;55.684;37.928;2023-04-03T03:49:00;57.30;;;27.65;;
28509;SDS011;15723;55.684;37.928;2023-04-03T03:51:27;39.58;;;18.38;;
28509;SDS011;15723;55.684;37.928;2023-04-03T03:53:54;31.15;;;16.38;;
28509;SDS011;15723;55.684;37.928;2023-04-03T03:56:20;30.90;;;15.75;;
28509;SDS011;15723;55.684;37.928;2023-04-03T03:58:48;35.13;;;17.17;;
28509;SDS011;15723;55.684;37.928;2023-04-03T04:01:15;31.23;;;16.73;;
28509;SDS011;15723;55.684;37.928;2023-04-03T04:03:46;28.52;;;14.43;;
28509;SDS011;15723;55.684;37.928;2023-04-03T04:06:16;26.33;;;14.98;;
28509;SDS011;15723;55.684;37.928;2023-04-03T04:08:43;26.75;;;13.68;;
28509;SDS011;15723;55.684;37.928;2023-04-03T04:11:11;29.80;;;14.02;;
28509;SDS011;15723;55.684;37.928;2023-04-03T04:13:37;21.48;;;13.95;;
28509;SDS011;15723;55.684;37.928;2023-04-03T04:16:05;26.10;;;13.55;;
28509;SDS011;15723;55.684;37.928;2023-04-03T04:18:33;25.40;;;14.73;;
28509;SDS011;15723;55.684;37.928;2023-04-03T04:20:59;25.73;;;13.65;;
28509;SDS011;15723;55.684;37.928;2023-04-03T04:23:26;19.92;;;14.55;;
28509;SDS011;15723;55.684;37.928;2023-04-03T04:25:53;23.33;;;13.40;;
28509;SDS011;15723;55.684;37.928;2023-04-03T04:28:20;30.92;;;15.13;;
28509;SDS011;15723;55.684;37.928;2023-04-03T04:30:49;24.48;;;14.73;;
28509;SDS011;15723;55.684;37.928;2023-04-03T04:33:17;22.83;;;14.63;;
28509;SDS011;15723;55.684;37.928;2023-04-03T04:35:46;23.05;;;14.23;;
28509;SDS011;15723;55.684;37.928;2023-04-03T04:38:15;20.55;;;13.25;;
28509;SDS011;15723;55.684;37.928;2023-04-03T04:40:42;18.48;;;12.30;;
28509;SDS011;15723;55.684;37.928;2023-04-03T04:43:08;21.17;;;11.77;;
28509;SDS011;15723;55.684;37.928;2023-04-03T04:45:36;23.20;;;11.73;;
28509;SDS011;15723;55.684;37.928;2023-04-03T04:48:03;20.95;;;11.60;;
28509;SDS011;15723;55.684;37.928;2023-04-03T04:50:29;21.00;;;11.18;;
28509;SDS011;15723;55.684;37.928;2023-04-03T04:52:56;19.20;;;10.52;;
28509;SDS011;15723;55.684;37.928;2023-04-03T04:55:23;18.07;;;11.23;;
28509;SDS011;15723;55.684;37.928;2023-04-03T04:57:49;24.60;;;11.77;;
28509;SDS011;15723;55.684;37.928;2023-04-03T05:00:17;20.50;;;12.43;;
28509;SDS011;15723;55.684;37.928;2023-04-03T05:02:44;17.60;;;10.75;;
28509;SDS011;15723;55.684;37.928;2023-04-03T05:05:10;25.65;;;12.77;;
28509;SDS011;15723;55.684;37.928;2023-04-03T05:07:37;17.63;;;11.68;;
28509;SDS011;15723;55.684;37.928;2023-04-03T05:10:04;22.98;;;13.10;;
28509;SDS011;15723;55.684;37.928;2023-04-03T05:12:31;18.50;;;11.60;;
28509;SDS011;15723;55.684;37.928;2023-04-03T05:15:00;23.67;;;12.85;;
28509;SDS011;15723;55.684;37.928;2023-04-03T05:17:30;24.45;;;12.77;;
28509;SDS011;15723;55.684;37.928;2023-04-03T05:19:57;23.63;;;11.32;;
28509;SDS011;15723;55.684;37.928;2023-04-03T05:22:25;23.30;;;12.73;;
28509;SDS011;15723;55.684;37.928;2023-04-03T05:24:55;24.17;;;12.05;;
28509;SDS011;15723;55.684;37.928;2023-04-03T05:27:23;18.02;;;11.60;;
28509;SDS011;15723;55.684;37.928;2023-04-03T05:29:52;18.55;;;11.35;;
28509;SDS011;15723;55.684;37.928;2023-04-03T05:32:21;23.13;;;12.82;;
28509;SDS011;15723;55.684;37.928;2023-04-03T05:34:54;20.58;;;11.85;;
28509;SDS011;15723;55.684;37.928;2023-04-03T05:37:21;14.40;;;10.75;;
28509;SDS011;15723;55.684;37.928;2023-04-03T05:39:49;16.50;;;12.02;;
28509;SDS011;15723;55.684;37.928;2023-04-03T05:42:15;20.80;;;12.93;;
28509;SDS011;15723;55.684;37.928;2023-04-03T05:44:42;21.65;;;11.80;;
28509;SDS011;15723;55.684;37.928;2023-04-03T05:47:08;17.83;;;12.35;;
28509;SDS011;15723;55.684;37.928;2023-04-03T05:49:35;21.48;;;12.63;;
28509;SDS011;15723;55.684;37.928;2023-04-03T05:52:01;20.02;;;11.13;;
28509;SDS011;15723;55.684;37.928;2023-04-03T05:54:30;21.30;;;13.63;;
28509;SDS011;15723;55.684;37.928;2023-04-03T05:57:03;20.17;;;12.77;;
28509;SDS011;15723;55.684;37.928;2023-04-03T05:59:29;27.35;;;13.60;;
28509;SDS011;15723;55.684;37.928;2023-04-03T06:01:58;25.45;;;12.82;;
28509;SDS011;15723;55.684;37.928;2023-04-03T06:04:24;20.23;;;11.45;;
28509;SDS011;15723;55.684;37.928;2023-04-03T06:06:52;23.73;;;12.23;;
28509;SDS011;15723;55.684;37.928;2023-04-03T06:09:21;20.67;;;11.73;;
28509;SDS011;15723;55.684;37.928;2023-04-03T06:11:48;20.40;;;12.70;;
28509;SDS011;15723;55.684;37.928;2023-04-03T06:14:16;23.33;;;11.85;;
28509;SDS011;15723;55.684;37.928;2023-04-03T06:16:42;21.10;;;12.63;;
28509;SDS011;15723;55.684;37.928;2023-04-03T06:19:09;31.80;;;12.52;;
28509;SDS011;15723;55.684;37.928;2023-04-03T06:21:40;21.63;;;12.80;;
28509;SDS011;15723;55.684;37.928;2023-04-03T06:24:07;21.80;;;11.68;;
28509;SDS011;15723;55.684;37.928;2023-04-03T06:26:35;22.63;;;12.15;;
28509;SDS011;15723;55.684;37.928;2023-04-03T06:29:01;25.98;;;12.45;;
28509;SDS011;15723;55.684;37.928;2023-04-03T06:31:28;27.50;;;12.68;;
28509;SDS011;15723;55.684;37.928;2023-04-03T06:33:54;20.65;;;12.13;;
28509;SDS011;15723;55.684;37.928;2023-04-03T06:36:20;25.15;;;12.50;;
28509;SDS011;15723;55.684;37.928;2023-04-03T06:38:47;22.88;;;11.95;;
28509;SDS011;15723;55.684;37.928;2023-04-03T06:41:14;27.90;;;13.63;;
28509;SDS011;15723;55.684;37.928;2023-04-03T06:43:42;28.25;;;12.88;;
28509;SDS011;15723;55.684;37.928;2023-04-03T06:46:19;24.92;;;13.77;;
28509;SDS011;15723;55.684;37.928;2023-04-03T06:48:48;25.88;;;12.50;;
28509;SDS011;15723;55.684;37.928;2023-04-03T06:51:22;29.80;;;12.52;;
28509;SDS011;15723;55.684;37.928;2023-04-03T06:53:51;25.13;;;12.35;;
28509;SDS011;15723;55.684;37.928;2023-04-03T06:56:18;26.35;;;13.27;;
28509;SDS011;15723;55.684;37.928;2023-04-03T06:58:45;24.92;;;13.45;;
28509;SDS011;15723;55.684;37.928;2023-04-03T07:01:12;19.48;;;13.13;;
28509;SDS011;15723;55.684;37.928;2023-04-03T07:03:40;26.08;;;13.85;;
28509;SDS011;15723;55.684;37.928;2023-04-03T07:06:07;26.30;;;15.23;;
28509;SDS011;15723;55.684;37.928;2023-04-03T07:08:36;32.15;;;16.23;;
28509;SDS011;15723;55.684;37.928;2023-04-03T07:11:03;21.30;;;13.32;;
28509;SDS011;15723;55.684;37.928;2023-04-03T07:13:30;18.05;;;12.32;;
28509;SDS011;15723;55.684;37.928;2023-04-03T07:15:56;30.20;;;16.98;;
28509;SDS011;15723;55.684;37.928;2023-04-03T07:18:23;28.13;;;17.23;;
28509;SDS011;15723;55.684;37.928;2023-04-03T07:20:50;38.10;;;19.48;;
28509;SDS011;15723;55.684;37.928;2023-04-03T07:23:16;30.15;;;18.33;;
28509;SDS011;15723;55.684;37.928;2023-04-03T07:25:43;31.50;;;19.15;;
28509;SDS011;15723;55.684;37.928;2023-04-03T07:28:11;27.05;;;16.50;;
28509;SDS011;15723;55.684;37.928;2023-04-03T07:30:50;24.75;;;14.98;;
28509;SDS011;15723;55.684;37.928;2023-04-03T07:33:19;20.42;;;13.70;;
28509;SDS011;15723;55.684;37.928;2023-04-03T07:35:47;23.30;;;14.25;;
28509;SDS011;15723;55.684;37.928;2023-04-03T07:38:14;30.27;;;17.48;;
28509;SDS011;15723;55.684;37.928;2023-04-03T07:40:45;32.97;;;20.10;;
28509;SDS011;15723;55.684;37.928;2023-04-03T07:43:12;32.08;;;21.10;;
28509;SDS011;15723;55.684;37.928;2023-04-03T07:45:40;32.97;;;18.95;;
28509;SDS011;15723;55.684;37.928;2023-04-03T07:48:10;32.60;;;20.63;;
28509;SDS011;15723;55.684;37.928;2023-04-03T07:50:37;26.33;;;16.05;;
28509;SDS011;15723;55.684;37.928;2023-04-03T07:53:05;28.92;;;18.45;;
28509;SDS011;15723;55.684;37.928;2023-04-03T07:55:33;28.52;;;17.95;;
28509;SDS011;15723;55.684;37.928;2023-04-03T07:58:06;28.52;;;18.42;;
28509;SDS011;15723;55.684;37.928;2023-04-03T08:00:32;28.65;;;17.30;;
28509;SDS011;15723;55.684;37.928;2023-04-03T08:02:58;29.27;;;17.95;;
28509;SDS011;15723;55.684;37.928;2023-04-03T08:05:24;37.00;;;20.05;;
28509;SDS011;15723;55.684;37.928;2023-04-03T08:07:50;35.00;;;20.17;;
28509;SDS011;15723;55.684;37.928;2023-04-03T08:10:17;25.00;;;16.27;;
28509;SDS011;15723;55.684;37.928;2023-04-03T08:12:45;29.60;;;16.48;;
28509;SDS011;15723;55.684;37.928;2023-04-03T08:15:14;27.85;;;16.35;;
28509;SDS011;15723;55.684;37.928;2023-04-03T08:17:41;29.15;;;17.08;;
28509;SDS011;15723;55.684;37.928;2023-04-03T08:20:09;24.13;;;14.95;;
28509;SDS011;15723;55.684;37.928;2023-04-03T08:22:36;29.25;;;16.70;;
28509;SDS011;15723;55.684;37.928;2023-04-03T08:25:02;24.38;;;13.80;;
28509;SDS011;15723;55.684;37.928;2023-04-03T08:27:30;20.40;;;14.68;;
28509;SDS011;15723;55.684;37.928;2023-04-03T08:29:56;30.85;;;14.75;;
28509;SDS011;15723;55.684;37.928;2023-04-03T08:32:22;22.13;;;13.60;;
28509;SDS011;15723;55.684;37.928;2023-04-03T08:34:49;27.20;;;13.55;;
28509;SDS011;15723;55.684;37.928;2023-04-03T08:37:15;24.33;;;13.73;;
28509;SDS011;15723;55.684;37.928;2023-04-03T08:39:42;24.47;;;14.03;;
28509;SDS011;15723;55.684;37.928;2023-04-03T08:42:15;24.90;;;15.07;;
28509;SDS011;15723;55.684;37.928;2023-04-03T08:45:14;19.98;;;13.75;;
28509;SDS011;15723;55.684;37.928;2023-04-03T08:48:06;25.38;;;15.27;;
28509;SDS011;15723;55.684;37.928;2023-04-03T08:50:39;28.27;;;14.65;;
28509;SDS011;15723;55.684;37.928;2023-04-03T08:53:13;25.65;;;15.48;;
28509;SDS011;15723;55.684;37.928;2023-04-03T08:55:46;29.08;;;15.13;;
28509;SDS011;15723;55.684;37.928;2023-04-03T09:00:59;25.33;;;15.25;;
28509;SDS011;15723;55.684;37.928;2023-04-03T09:03:33;26.52;;;14.90;;
28509;SDS011;15723;55.684;37.928;2023-04-03T09:06:05;34.90;;;16.50;;
28509;SDS011;15723;55.684;37.928;2023-04-03T09:09:06;39.92;;;15.10;;
28509;SDS011;15723;55.684;37.928;2023-04-03T09:11:57;27.98;;;14.77;;
28509;SDS011;15723;55.684;37.928;2023-04-03T09:17:09;33.20;;;15.30;;
28509;SDS011;15723;55.684;37.928;2023-04-03T09:22:33;30.58;;;15.88;;
28509;SDS011;15723;55.684;37.928;2023-04-03T09:27:50;25.67;;;13.80;;
28509;SDS011;15723;55.684;37.928;2023-04-03T09:30:22;25.75;;;13.82;;
28509;SDS011;15723;55.684;37.928;2023-04-03T09:32:54;27.03;;;14.90;;
28509;SDS011;15723;55.684;37.928;2023-04-03T09:35:25;22.25;;;15.20;;
28509;SDS011;15723;55.684;37.928;2023-04-03T09:37:55;24.92;;;14.75;;
28509;SDS011;15723;55.684;37.928;2023-04-03T09:40:44;23.80;;;14.63;;
28509;SDS011;15723;55.684;37.928;2023-04-03T09:45:47;25.30;;;14.77;;
28509;SDS011;15723;55.684;37.928;2023-04-03T09:50:53;24.67;;;13.80;;
28509;SDS011;15723;55.684;37.928;2023-04-03T09:53:28;26.02;;;14.85;;
28509;SDS011;15723;55.684;37.928;2023-04-03T09:56:18;22.15;;;13.90;;
28509;SDS011;15723;55.684;37.928;2023-04-03T09:58:48;28.30;;;13.73;;
28509;SDS011;15723;55.684;37.928;2023-04-03T10:01:27;21.45;;;12.82;;
28509;SDS011;15723;55.684;37.928;2023-04-03T10:04:14;20.25;;;12.15;;
28509;SDS011;15723;55.684;37.928;2023-04-03T10:06:43;24.80;;;13.70;;
28509;SDS011;15723;55.684;37.928;2023-04-03T10:09:17;24.13;;;13.27;;
28509;SDS011;15723;55.684;37.928;2023-04-03T10:15:16;24.85;;;10.73;;
28509;SDS011;15723;55.684;37.928;2023-04-03T10:17:32;20.15;;;11.18;;
28509;SDS011;15723;55.684;37.928;2023-04-03T10:20:26;15.18;;;9.95;;
28509;SDS011;15723;55.684;37.928;2023-04-03T10:31:25;20.05;;;11.80;;
28509;SDS011;15723;55.684;37.928;2023-04-03T10:34:05;16.70;;;11.18;;
28509;SDS011;15723;55.684;37.928;2023-04-03T10:36:42;22.42;;;11.07;;
28509;SDS011;15723;55.684;37.928;2023-04-03T10:42:57;19.70;;;9.27;;
28509;SDS011;15723;55.684;37.928;2023-04-03T10:46:22;26.70;;;11.90;;
28509;SDS011;15723;55.684;37.928;2023-04-03T10:48:43;17.15;;;10.68;;
28509;SDS011;15723;55.684;37.928;2023-04-03T10:51:39;20.00;;;10.82;;
28509;SDS011;15723;55.684;37.928;2023-04-03T10:57:01;16.58;;;11.68;;
28509;SDS011;15723;55.684;37.928;2023-04-03T10:59:37;20.80;;;11.63;;
28509;SDS011;15723;55.684;37.928;2023-04-03T11:02:11;21.92;;;11.93;;
28509;SDS011;15723;55.684;37.928;2023-04-03T11:04:46;19.10;;;11.13;;
28509;SDS011;15723;55.684;37.928;2023-04-03T11:07:23;15.13;;;8.95;;
28509;SDS011;15723;55.684;37.928;2023-04-03T11:09:55;12.23;;;7.53;;
28509;SDS011;15723;55.684;37.928;2023-04-03T11:12:41;15.07;;;5.78;;
28509;SDS011;15723;55.684;37.928;2023-04-03T11:15:13;7.82;;;6.18;;
28509;SDS011;15723;55.684;37.928;2023-04-03T11:17:53;14.27;;;7.07;;
28509;SDS011;15723;55.684;37.928;2023-04-03T11:20:26;10.95;;;7.13;;
28509;SDS011;15723;55.684;37.928;2023-04-03T11:25:56;12.18;;;6.07;;
28509;SDS011;15723;55.684;37.928;2023-04-03T11:28:32;15.40;;;6.68;;
28509;SDS011;15723;55.684;37.928;2023-04-03T11:31:06;14.02;;;6.78;;
28509;SDS011;15723;55.684;37.928;2023-04-03T11:33:47;9.48;;;6.32;;
28509;SDS011;15723;55.684;37.928;2023-04-03T11:38:44;8.95;;;5.80;;
28509;SDS011;15723;55.684;37.928;2023-04-03T11:41:13;12.25;;;6.38;;
28509;SDS011;15723;55.684;37.928;2023-04-03T11:43:40;8.27;;;6.10;;
28509;SDS011;15723;55.684;37.928;2023-04-03T11:46:21;15.50;;;7.10;;
28509;SDS011;15723;55.684;37.928;2023-04-03T11:48:48;11.10;;;6.60;;
28509;SDS011;15723;55.684;37.928;2023-04-03T11:53:54;13.10;;;7.05;;
28509;SDS011;15723;55.684;37.928;2023-04-03T12:01:46;14.48;;;7.40;;
28509;SDS011;15723;55.684;37.928;2023-04-03T12:04:17;14.07;;;7.28;;
28509;SDS011;15723;55.684;37.928;2023-04-03T12:09:29;14.90;;;7.95;;
28509;SDS011;15723;55.684;37.928;2023-04-03T12:16:54;16.10;;;8.40;;
28509;SDS011;15723;55.684;37.928;2023-04-03T12:19:38;17.87;;;8.27;;
28509;SDS011;15723;55.684;37.928;2023-04-03T12:29:55;11.90;;;7.75;;
28509;SDS011;15723;55.684;37.928;2023-04-03T12:32:41;12.88;;;7.47;;
28509;SDS011;15723;55.684;37.928;2023-04-03T12:38:13;14.90;;;6.93;;
28509;SDS011;15723;55.684;37.928;2023-04-03T12:40:53;13.80;;;7.47;;
28509;SDS011;15723;55.684;37.928;2023-04-03T12:43:36;15.65;;;6.70;;
28509;SDS011;15723;55.684;37.928;2023-04-03T12:46:14;15.23;;;6.63;;
28509;SDS011;15723;55.684;37.928;2023-04-03T12:51:21;9.73;;;5.90;;
28509;SDS011;15723;55.684;37.928;2023-04-03T12:53:56;11.80;;;6.30;;
28509;SDS011;15723;55.684;37.928;2023-04-03T12:58:55;11.50;;;6.60;;
28509;SDS011;15723;55.684;37.928;2023-04-03T13:06:32;10.75;;;6.80;;
28509;SDS011;15723;55.684;37.928;2023-04-03T13:11:32;12.13;;;6.80;;
28509;SDS011;15723;55.684;37.928;2023-04-03T13:14:05;11.90;;;6.65;;
28509;SDS011;15723;55.684;37.928;2023-04-03T13:16:57;8.95;;;6.25;;
28509;SDS011;15723;55.684;37.928;2023-04-03T13:19:36;12.20;;;6.63;;
28509;SDS011;15723;55.684;37.928;2023-04-03T13:22:04;12.35;;;6.88;;
28509;SDS011;15723;55.684;37.928;2023-04-03T13:24:41;14.55;;;6.72;;
28509;SDS011;15723;55.684;37.928;2023-04-03T13:27:16;10.55;;;6.82;;
28509;SDS011;15723;55.684;37.928;2023-04-03T13:29:43;12.95;;;7.47;;
28509;SDS011;15723;55.684;37.928;2023-04-03T13:32:24;14.35;;;7.53;;
28509;SDS011;15723;55.684;37.928;2023-04-03T13:34:53;15.60;;;7.75;;
28509;SDS011;15723;55.684;37.928;2023-04-03T13:37:20;12.25;;;8.00;;
28509;SDS011;15723;55.684;37.928;2023-04-03T13:40:09;12.75;;;7.20;;
28509;SDS011;15723;55.684;37.928;2023-04-03T13:42:38;13.32;;;8.40;;
28509;SDS011;15723;55.684;37.928;2023-04-03T13:47:39;11.52;;;6.43;;
28509;SDS011;15723;55.684;37.928;2023-04-03T13:52:55;8.02;;;4.82;;
28509;SDS011;15723;55.684;37.928;2023-04-03T13:55:32;8.20;;;5.13;;
28509;SDS011;15723;55.684;37.928;2023-04-03T13:58:01;8.82;;;6.82;;
28509;SDS011;15723;55.684;37.928;2023-04-03T14:05:59;18.13;;;9.95;;
28509;SDS011;15723;55.684;37.928;2023-04-03T14:08:26;13.10;;;8.82;;
28509;SDS011;15723;55.684;37.928;2023-04-03T14:10:53;15.82;;;9.18;;
28509;SDS011;15723;55.684;37.928;2023-04-03T14:13:20;14.30;;;8.63;;
28509;SDS011;15723;55.684;37.928;2023-04-03T14:15:47;14.13;;;7.10;;
28509;SDS011;15723;55.684;37.928;2023-04-03T14:18:17;13.30;;;7.75;;
28509;SDS011;15723;55.684;37.928;2023-04-03T14:20:45;10.32;;;6.93;;
28509;SDS011;15723;55.684;37.928;2023-04-03T14:23:12;10.73;;;7.05;;
28509;SDS011;15723;55.684;37.928;2023-04-03T14:25:39;11.45;;;7.25;;
28509;SDS011;15723;55.684;37.928;2023-04-03T14:28:13;14.43;;;7.63;;
28509;SDS011;15723;55.684;37.928;2023-04-03T14:30:43;12.60;;;7.68;;
28509;SDS011;15723;55.684;37.928;2023-04-03T14:33:15;10.55;;;7.38;;
28509;SDS011;15723;55.684;37.928;2023-04-03T14:35:43;9.13;;;6.33;;
28509;SDS011;15723;55.684;37.928;2023-04-03T14:38:20;15.55;;;7.80;;
28509;SDS011;15723;55.684;37.928;2023-04-03T14:40:49;11.43;;;6.88;;
28509;SDS011;15723;55.684;37.928;2023-04-03T14:43:16;10.18;;;7.75;;
28509;SDS011;15723;55.684;37.928;2023-04-03T14:45:44;18.85;;;9.13;;
28509;SDS011;15723;55.684;37.928;2023-04-03T14:48:21;15.70;;;8.02;;
28509;SDS011;15723;55.684;37.928;2023-04-03T14:50:49;13.07;;;8.88;;
28509;SDS011;15723;55.684;37.928;2023-04-03T14:53:16;12.63;;;7.25;;
28509;SDS011;15723;55.684;37.928;2023-04-03T14:55:48;12.25;;;7.13;;
28509;SDS011;15723;55.684;37.928;2023-04-03T14:58:16;11.63;;;6.97;;
28509;SDS011;15723;55.684;37.928;2023-04-03T15:00:44;20.52;;;11.23;;
28509;SDS011;15723;55.684;37.928;2023-04-03T15:03:15;25.55;;;11.50;;
28509;SDS011;15723;55.684;37.928;2023-04-03T15:05:43;34.65;;;13.82;;
28509;SDS011;15723;55.684;37.928;2023-04-03T15:08:15;29.40;;;12.43;;
28509;SDS011;15723;55.684;37.928;2023-04-03T15:10:49;24.23;;;12.38;;
28509;SDS011;15723;55.684;37.928;2023-04-03T15:13:18;22.77;;;12.95;;
28509;SDS011;15723;55.684;37.928;2023-04-03T15:15:45;22.60;;;11.90;;
28509;SDS011;15723;55.684;37.928;2023-04-03T15:18:14;26.63;;;13.23;;
28509;SDS011;15723;55.684;37.928;2023-04-03T15:20:43;22.75;;;13.10;;
28509;SDS011;15723;55.684;37.928;2023-04-03T15:23:10;24.65;;;12.48;;
28509;SDS011;15723;55.684;37.928;2023-04-03T15:25:38;28.17;;;11.68;;
28509;SDS011;15723;55.684;37.928;2023-04-03T15:28:05;25.38;;;11.52;;
28509;SDS011;15723;55.684;37.928;2023-04-03T15:30:31;16.63;;;11.60;;
28509;SDS011;15723;55.684;37.928;2023-04-03T15:32:58;21.13;;;11.63;;
28509;SDS011;15723;55.684;37.928;2023-04-03T15:35:24;21.45;;;11.32;;
28509;SDS011;15723;55.684;37.928;2023-04-03T15:37:50;25.65;;;12.43;;
28509;SDS011;15723;55.684;37.928;2023-04-03T15:40:16;22.88;;;11.40;;
28509;SDS011;15723;55.684;37.928;2023-04-03T15:42:42;27.15;;;10.90;;
28509;SDS011;15723;55.684;37.928;2023-04-03T15:45:09;18.33;;;11.23;;
28509;SDS011;15723;55.684;37.928;2023-04-03T15:47:35;25.38;;;11.80;;
28509;SDS011;15723;55.684;37.928;2023-04-03T15:50:02;20.98;;;11.40;;
28509;SDS011;15723;55.684;37.928;2023-04-03T15:52:31;24.45;;;11.73;;
28509;SDS011;15723;55.684;37.928;2023-04-03T15:54:57;27.90;;;12.50;;
28509;SDS011;15723;55.684;37.928;2023-04-03T15:57:24;34.45;;;13.45;;
28509;SDS011;15723;55.684;37.928;2023-04-03T15:59:52;35.88;;;16.23;;